sensor_id;sensor_type;location;lat;lon;timestamp;P1;durP1;ratioP1;P2;durP2;ratioP2
12812;SDS011;6471;50.932;6.934;2023-12-20T00:01:12;5.47;;;4.50;;
12812;SDS011;6471;50.932;6.934;2023-12-20T00:03:38;5.37;;;4.60;;
12812;SDS011;6471;50.932;6.934;2023-12-20T00:06:04;5.00;;;4.20;;
12812;SDS011;6471;50.932;6.934;2023-12-20T00:08:30;6.33;;;5.07;;
12812;SDS011;6471;50.932;6.934;2023-12-20T00:10:56;5.23;;;4.60;;
12812;SDS011;6471;50.932;6.934;2023-12-20T00:13:25;5.27;;;4.43;;
12812;SDS011;6471;50.932;6.934;2023-12-20T00:15:51;5.37;;;4.53;;
12812;SDS011;6471;50.932;6.934;2023-12-20T00:18:17;5.50;;;4.73;;
12812;SDS011;6471;50.932;6.934;2023-12-20T00:20:43;6.00;;;4.70;;
12812;SDS011;6471;50.932;6.934;2023-12-20T00:23:10;4.50;;;3.93;;
12812;SDS011;6471;50.932;6.934;2023-12-20T00:25:36;4.50;;;3.90;;
12812;SDS011;6471;50.932;6.934;2023-12-20T00:28:02;6.23;;;4.90;;
12812;SDS011;6471;50.932;6.934;2023-12-20T00:30:28;6.13;;;5.20;;
12812;SDS011;6471;50.932;6.934;2023-12-20T00:32:55;5.97;;;4.87;;
12812;SDS011;6471;50.932;6.934;2023-12-20T00:35:21;6.43;;;5.10;;
12812;SDS011;6471;50.932;6.934;2023-12-20T00:37:47;5.80;;;5.20;;
12812;SDS011;6471;50.932;6.934;2023-12-20T00:40:13;6.07;;;5.17;;
12812;SDS011;6471;50.932;6.934;2023-12-20T00:42:40;6.40;;;5.33;;
12812;SDS011;6471;50.932;6.934;2023-12-20T00:45:06;5.63;;;4.70;;
12812;SDS011;6471;50.932;6.934;2023-12-20T00:47:32;4.83;;;4.27;;
12812;SDS011;6471;50.932;6.934;2023-12-20T00:49:58;5.97;;;3.83;;
12812;SDS011;6471;50.932;6.934;2023-12-20T00:52:24;4.90;;;3.93;;
12812;SDS011;6471;50.932;6.934;2023-12-20T00:54:50;5.90;;;4.23;;
12812;SDS011;6471;50.932;6.934;2023-12-20T00:57:17;4.97;;;4.07;;
12812;SDS011;6471;50.932;6.934;2023-12-20T00:59:43;5.97;;;4.50;;
12812;SDS011;6471;50.932;6.934;2023-12-20T01:02:09;6.83;;;4.53;;
12812;SDS011;6471;50.932;6.934;2023-12-20T01:04:35;6.83;;;4.63;;
12812;SDS011;6471;50.932;6.934;2023-12-20T01:07:01;6.00;;;4.50;;
12812;SDS011;6471;50.932;6.934;2023-12-20T01:09:27;5.30;;;4.00;;
12812;SDS011;6471;50.932;6.934;2023-12-20T01:11:53;6.30;;;4.30;;
12812;SDS011;6471;50.932;6.934;2023-12-20T01:14:19;6.23;;;3.93;;
12812;SDS011;6471;50.932;6.934;2023-12-20T01:16:46;6.00;;;4.30;;
12812;SDS011;6471;50.932;6.934;2023-12-20T01:19:12;4.93;;;3.77;;
12812;SDS011;6471;50.932;6.934;2023-12-20T01:21:39;5.30;;;3.93;;
12812;SDS011;6471;50.932;6.934;2023-12-20T01:24:05;4.40;;;3.40;;
12812;SDS011;6471;50.932;6.934;2023-12-20T01:26:31;4.27;;;3.50;;
12812;SDS011;6471;50.932;6.934;2023-12-20T01:28:57;4.73;;;3.90;;
12812;SDS011;6471;50.932;6.934;2023-12-20T01:31:23;5.40;;;3.73;;
12812;SDS011;6471;50.932;6.934;2023-12-20T01:33:49;4.60;;;3.67;;
12812;SDS011;6471;50.932;6.934;2023-12-20T01:36:15;6.63;;;4.17;;
12812;SDS011;6471;50.932;6.934;2023-12-20T01:38:41;4.87;;;3.73;;
12812;SDS011;6471;50.932;6.934;2023-12-20T01:41:07;5.80;;;3.97;;
12812;SDS011;6471;50.932;6.934;2023-12-20T01:43:33;6.03;;;3.97;;
12812;SDS011;6471;50.932;6.934;2023-12-20T01:45:59;6.63;;;4.70;;
12812;SDS011;6471;50.932;6.934;2023-12-20T01:48:26;6.13;;;4.90;;
12812;SDS011;6471;50.932;6.934;2023-12-20T01:50:53;9.00;;;5.93;;
12812;SDS011;6471;50.932;6.934;2023-12-20T01:53:20;0.00;;;0.00;;
12812;SDS011;6471;50.932;6.934;2023-12-20T01:55:47;0.00;;;0.00;;
12812;SDS011;6471;50.932;6.934;2023-12-20T01:58:14;0.00;;;0.00;;
12812;SDS011;6471;50.932;6.934;2023-12-20T02:00:40;0.00;;;0.00;;
12812;SDS011;6471;50.932;6.934;2023-12-20T02:03:06;0.00;;;0.00;;
12812;SDS011;6471;50.932;6.934;2023-12-20T02:05:33;0.00;;;0.00;;
12812;SDS011;6471;50.932;6.934;2023-12-20T02:07:59;0.00;;;0.00;;
12812;SDS011;6471;50.932;6.934;2023-12-20T02:10:25;1.10;;;1.03;;
12812;SDS011;6471;50.932;6.934;2023-12-20T02:12:52;0.00;;;0.00;;
12812;SDS011;6471;50.932;6.934;2023-12-20T02:15:18;0.00;;;0.00;;
12812;SDS011;6471;50.932;6.934;2023-12-20T02:17:45;0.00;;;0.00;;
12812;SDS011;6471;50.932;6.934;2023-12-20T02:20:11;0.00;;;0.00;;
12812;SDS011;6471;50.932;6.934;2023-12-20T02:22:37;0.00;;;0.00;;
12812;SDS011;6471;50.932;6.934;2023-12-20T02:25:03;0.00;;;0.00;;
12812;SDS011;6471;50.932;6.934;2023-12-20T02:27:29;0.00;;;0.00;;
12812;SDS011;6471;50.932;6.934;2023-12-20T02:29:55;0.00;;;0.00;;
12812;SDS011;6471;50.932;6.934;2023-12-20T02:32:21;0.00;;;0.00;;
12812;SDS011;6471;50.932;6.934;2023-12-20T02:34:51;0.00;;;0.00;;
12812;SDS011;6471;50.932;6.934;2023-12-20T02:37:17;0.00;;;0.00;;
12812;SDS011;6471;50.932;6.934;2023-12-20T02:39:43;0.00;;;0.00;;
12812;SDS011;6471;50.932;6.934;2023-12-20T02:42:09;0.00;;;0.00;;
12812;SDS011;6471;50.932;6.934;2023-12-20T02:44:35;0.00;;;0.00;;
12812;SDS011;6471;50.932;6.934;2023-12-20T02:47:01;0.00;;;0.00;;
12812;SDS011;6471;50.932;6.934;2023-12-20T02:49:27;0.00;;;0.00;;
12812;SDS011;6471;50.932;6.934;2023-12-20T02:51:53;0.00;;;0.00;;
12812;SDS011;6471;50.932;6.934;2023-12-20T02:54:19;0.00;;;0.00;;
12812;SDS011;6471;50.932;6.934;2023-12-20T02:56:46;0.00;;;0.00;;
12812;SDS011;6471;50.932;6.934;2023-12-20T02:59:12;0.00;;;0.00;;
12812;SDS011;6471;50.932;6.934;2023-12-20T03:01:42;0.00;;;0.00;;
12812;SDS011;6471;50.932;6.934;2023-12-20T03:04:09;0.00;;;0.00;;
12812;SDS011;6471;50.932;6.934;2023-12-20T03:06:35;0.00;;;0.00;;
12812;SDS011;6471;50.932;6.934;2023-12-20T03:09:01;0.00;;;0.00;;
12812;SDS011;6471;50.932;6.934;2023-12-20T03:11:27;0.00;;;0.00;;
12812;SDS011;6471;50.932;6.934;2023-12-20T03:13:54;0.00;;;0.00;;
12812;SDS011;6471;50.932;6.934;2023-12-20T03:16:20;0.00;;;0.00;;
12812;SDS011;6471;50.932;6.934;2023-12-20T03:18:46;0.00;;;0.00;;
12812;SDS011;6471;50.932;6.934;2023-12-20T03:21:12;0.00;;;0.00;;
12812;SDS011;6471;50.932;6.934;2023-12-20T03:23:38;0.00;;;0.00;;
12812;SDS011;6471;50.932;6.934;2023-12-20T03:26:06;0.00;;;0.00;;
12812;SDS011;6471;50.932;6.934;2023-12-20T03:28:32;0.00;;;0.00;;
12812;SDS011;6471;50.932;6.934;2023-12-20T03:30:59;0.00;;;0.00;;
12812;SDS011;6471;50.932;6.934;2023-12-20T03:33:25;0.00;;;0.00;;
12812;SDS011;6471;50.932;6.934;2023-12-20T03:35:51;0.00;;;0.00;;
12812;SDS011;6471;50.932;6.934;2023-12-20T03:38:17;0.00;;;0.00;;
12812;SDS011;6471;50.932;6.934;2023-12-20T03:40:43;0.00;;;0.00;;
12812;SDS011;6471;50.932;6.934;2023-12-20T03:43:09;0.00;;;0.00;;
12812;SDS011;6471;50.932;6.934;2023-12-20T03:45:35;0.00;;;0.00;;
12812;SDS011;6471;50.932;6.934;2023-12-20T03:48:01;0.00;;;0.00;;
12812;SDS011;6471;50.932;6.934;2023-12-20T03:50:28;0.00;;;0.00;;
12812;SDS011;6471;50.932;6.934;2023-12-20T03:52:54;0.00;;;0.00;;
12812;SDS011;6471;50.932;6.934;2023-12-20T03:55:20;0.00;;;0.00;;
12812;SDS011;6471;50.932;6.934;2023-12-20T03:57:46;0.00;;;0.00;;
12812;SDS011;6471;50.932;6.934;2023-12-20T04:00:13;0.00;;;0.00;;
12812;SDS011;6471;50.932;6.934;2023-12-20T04:02:39;0.00;;;0.00;;
12812;SDS011;6471;50.932;6.934;2023-12-20T04:05:06;0.00;;;0.00;;
12812;SDS011;6471;50.932;6.934;2023-12-20T04:07:32;0.00;;;0.00;;
12812;SDS011;6471;50.932;6.934;2023-12-20T04:09:59;0.00;;;0.00;;
12812;SDS011;6471;50.932;6.934;2023-12-20T04:12:25;0.00;;;0.00;;
12812;SDS011;6471;50.932;6.934;2023-12-20T04:14:51;0.00;;;0.00;;
12812;SDS011;6471;50.932;6.934;2023-12-20T04:17:18;0.00;;;0.00;;
12812;SDS011;6471;50.932;6.934;2023-12-20T04:19:44;0.00;;;0.00;;
12812;SDS011;6471;50.932;6.934;2023-12-20T04:22:10;0.00;;;0.00;;
12812;SDS011;6471;50.932;6.934;2023-12-20T04:24:36;0.00;;;0.00;;
12812;SDS011;6471;50.932;6.934;2023-12-20T04:27:02;0.00;;;0.00;;
12812;SDS011;6471;50.932;6.934;2023-12-20T04:29:28;0.00;;;0.00;;
12812;SDS011;6471;50.932;6.934;2023-12-20T04:31:54;0.00;;;0.00;;
12812;SDS011;6471;50.932;6.934;2023-12-20T04:34:20;0.00;;;0.00;;
12812;SDS011;6471;50.932;6.934;2023-12-20T04:36:46;0.00;;;0.00;;
12812;SDS011;6471;50.932;6.934;2023-12-20T04:39:12;0.00;;;0.00;;
12812;SDS011;6471;50.932;6.934;2023-12-20T04:41:40;0.00;;;0.00;;
12812;SDS011;6471;50.932;6.934;2023-12-20T04:44:06;0.00;;;0.00;;
12812;SDS011;6471;50.932;6.934;2023-12-20T04:46:32;0.00;;;0.00;;
12812;SDS011;6471;50.932;6.934;2023-12-20T04:48:58;0.00;;;0.00;;
12812;SDS011;6471;50.932;6.934;2023-12-20T04:51:24;0.00;;;0.00;;
12812;SDS011;6471;50.932;6.934;2023-12-20T04:53:50;0.00;;;0.00;;
12812;SDS011;6471;50.932;6.934;2023-12-20T04:56:16;0.00;;;0.00;;
12812;SDS011;6471;50.932;6.934;2023-12-20T04:58:42;0.00;;;0.00;;
12812;SDS011;6471;50.932;6.934;2023-12-20T05:01:09;0.00;;;0.00;;
12812;SDS011;6471;50.932;6.934;2023-12-20T05:03:35;0.00;;;0.00;;
12812;SDS011;6471;50.932;6.934;2023-12-20T05:06:01;0.00;;;0.00;;
12812;SDS011;6471;50.932;6.934;2023-12-20T05:08:27;0.00;;;0.00;;
12812;SDS011;6471;50.932;6.934;2023-12-20T05:10:54;0.00;;;0.00;;
12812;SDS011;6471;50.932;6.934;2023-12-20T05:13:20;0.00;;;0.00;;
12812;SDS011;6471;50.932;6.934;2023-12-20T05:15:47;0.00;;;0.00;;
12812;SDS011;6471;50.932;6.934;2023-12-20T05:18:13;0.00;;;0.00;;
12812;SDS011;6471;50.932;6.934;2023-12-20T05:20:39;0.00;;;0.00;;
12812;SDS011;6471;50.932;6.934;2023-12-20T05:23:05;0.00;;;0.00;;
12812;SDS011;6471;50.932;6.934;2023-12-20T05:25:31;0.00;;;0.00;;
12812;SDS011;6471;50.932;6.934;2023-12-20T05:27:58;0.00;;;0.00;;
12812;SDS011;6471;50.932;6.934;2023-12-20T05:30:24;0.00;;;0.00;;
12812;SDS011;6471;50.932;6.934;2023-12-20T05:32:50;0.00;;;0.00;;
12812;SDS011;6471;50.932;6.934;2023-12-20T05:35:16;0.00;;;0.00;;
12812;SDS011;6471;50.932;6.934;2023-12-20T05:37:42;0.00;;;0.00;;
12812;SDS011;6471;50.932;6.934;2023-12-20T05:40:08;0.00;;;0.00;;
12812;SDS011;6471;50.932;6.934;2023-12-20T05:42:35;0.00;;;0.00;;
12812;SDS011;6471;50.932;6.934;2023-12-20T05:45:02;0.00;;;0.00;;
12812;SDS011;6471;50.932;6.934;2023-12-20T05:47:28;0.00;;;0.00;;
12812;SDS011;6471;50.932;6.934;2023-12-20T05:49:54;0.00;;;0.00;;
12812;SDS011;6471;50.932;6.934;2023-12-20T05:52:20;0.00;;;0.00;;
12812;SDS011;6471;50.932;6.934;2023-12-20T05:54:46;0.00;;;0.00;;
12812;SDS011;6471;50.932;6.934;2023-12-20T05:57:12;0.00;;;0.00;;
12812;SDS011;6471;50.932;6.934;2023-12-20T05:59:39;0.00;;;0.00;;
12812;SDS011;6471;50.932;6.934;2023-12-20T06:02:05;0.00;;;0.00;;
12812;SDS011;6471;50.932;6.934;2023-12-20T06:04:31;0.00;;;0.00;;
12812;SDS011;6471;50.932;6.934;2023-12-20T06:06:57;0.00;;;0.00;;
12812;SDS011;6471;50.932;6.934;2023-12-20T06:09:23;0.00;;;0.00;;
12812;SDS011;6471;50.932;6.934;2023-12-20T06:11:49;0.00;;;0.00;;
12812;SDS011;6471;50.932;6.934;2023-12-20T06:14:16;0.00;;;0.00;;
12812;SDS011;6471;50.932;6.934;2023-12-20T06:16:42;0.00;;;0.00;;
12812;SDS011;6471;50.932;6.934;2023-12-20T06:19:10;0.00;;;0.00;;
12812;SDS011;6471;50.932;6.934;2023-12-20T06:21:36;0.00;;;0.00;;
12812;SDS011;6471;50.932;6.934;2023-12-20T06:24:04;0.00;;;0.00;;
12812;SDS011;6471;50.932;6.934;2023-12-20T06:39:49;0.00;;;0.00;;
12812;SDS011;6471;50.932;6.934;2023-12-20T06:42:21;0.00;;;0.00;;
12812;SDS011;6471;50.932;6.934;2023-12-20T06:45:01;0.00;;;0.00;;
12812;SDS011;6471;50.932;6.934;2023-12-20T06:47:33;0.00;;;0.00;;
12812;SDS011;6471;50.932;6.934;2023-12-20T07:06:45;0.00;;;0.00;;
12812;SDS011;6471;50.932;6.934;2023-12-20T07:09:12;0.00;;;0.00;;
12812;SDS011;6471;50.932;6.934;2023-12-20T07:11:39;0.00;;;0.00;;
12812;SDS011;6471;50.932;6.934;2023-12-20T07:20:15;0.00;;;0.00;;
12812;SDS011;6471;50.932;6.934;2023-12-20T07:23:07;0.00;;;0.00;;
12812;SDS011;6471;50.932;6.934;2023-12-20T07:25:52;0.00;;;0.00;;
12812;SDS011;6471;50.932;6.934;2023-12-20T07:28:32;0.00;;;0.00;;
12812;SDS011;6471;50.932;6.934;2023-12-20T07:31:05;0.00;;;0.00;;
12812;SDS011;6471;50.932;6.934;2023-12-20T07:33:46;0.00;;;0.00;;
12812;SDS011;6471;50.932;6.934;2023-12-20T07:45:38;0.00;;;0.00;;
12812;SDS011;6471;50.932;6.934;2023-12-20T07:48:10;0.00;;;0.00;;
12812;SDS011;6471;50.932;6.934;2023-12-20T08:09:10;0.00;;;0.00;;
12812;SDS011;6471;50.932;6.934;2023-12-20T08:12:03;0.00;;;0.00;;
12812;SDS011;6471;50.932;6.934;2023-12-20T08:14:38;0.00;;;0.00;;
12812;SDS011;6471;50.932;6.934;2023-12-20T08:17:44;0.00;;;0.00;;
12812;SDS011;6471;50.932;6.934;2023-12-20T08:23:17;0.00;;;0.00;;
12812;SDS011;6471;50.932;6.934;2023-12-20T08:44:23;0.00;;;0.00;;
12812;SDS011;6471;50.932;6.934;2023-12-20T08:46:56;0.00;;;0.00;;
12812;SDS011;6471;50.932;6.934;2023-12-20T08:49:22;0.00;;;0.00;;
12812;SDS011;6471;50.932;6.934;2023-12-20T08:51:59;0.00;;;0.00;;
12812;SDS011;6471;50.932;6.934;2023-12-20T08:54:25;0.00;;;0.00;;
12812;SDS011;6471;50.932;6.934;2023-12-20T08:56:51;0.00;;;0.00;;
12812;SDS011;6471;50.932;6.934;2023-12-20T08:59:19;0.00;;;0.00;;
12812;SDS011;6471;50.932;6.934;2023-12-20T09:01:45;0.00;;;0.00;;
12812;SDS011;6471;50.932;6.934;2023-12-20T09:04:22;0.00;;;0.00;;
12812;SDS011;6471;50.932;6.934;2023-12-20T09:06:50;0.00;;;0.00;;
12812;SDS011;6471;50.932;6.934;2023-12-20T09:09:16;0.00;;;0.00;;
12812;SDS011;6471;50.932;6.934;2023-12-20T09:11:42;0.00;;;0.00;;
12812;SDS011;6471;50.932;6.934;2023-12-20T09:14:11;0.00;;;0.00;;
12812;SDS011;6471;50.932;6.934;2023-12-20T09:16:37;0.00;;;0.00;;
12812;SDS011;6471;50.932;6.934;2023-12-20T09:19:03;0.00;;;0.00;;
12812;SDS011;6471;50.932;6.934;2023-12-20T09:21:31;0.00;;;0.00;;
12812;SDS011;6471;50.932;6.934;2023-12-20T09:24:01;0.00;;;0.00;;
12812;SDS011;6471;50.932;6.934;2023-12-20T09:26:30;0.00;;;0.00;;
12812;SDS011;6471;50.932;6.934;2023-12-20T09:29:06;0.00;;;0.00;;
12812;SDS011;6471;50.932;6.934;2023-12-20T09:31:36;0.00;;;0.00;;
12812;SDS011;6471;50.932;6.934;2023-12-20T09:36:54;0.00;;;0.00;;
12812;SDS011;6471;50.932;6.934;2023-12-20T09:39:20;0.00;;;0.00;;
12812;SDS011;6471;50.932;6.934;2023-12-20T10:06:31;0.00;;;0.00;;
12812;SDS011;6471;50.932;6.934;2023-12-20T10:09:22;0.00;;;0.00;;
12812;SDS011;6471;50.932;6.934;2023-12-20T10:24:29;0.00;;;0.00;;
12812;SDS011;6471;50.932;6.934;2023-12-20T10:27:11;0.00;;;0.00;;
12812;SDS011;6471;50.932;6.934;2023-12-20T10:30:20;0.00;;;0.00;;
12812;SDS011;6471;50.932;6.934;2023-12-20T10:43:42;0.00;;;0.00;;
12812;SDS011;6471;50.932;6.934;2023-12-20T10:46:48;0.00;;;0.00;;
12812;SDS011;6471;50.932;6.934;2023-12-20T11:01:19;0.00;;;0.00;;
12812;SDS011;6471;50.932;6.934;2023-12-20T11:41:10;0.00;;;0.00;;
12812;SDS011;6471;50.932;6.934;2023-12-20T11:46:54;0.00;;;0.00;;
12812;SDS011;6471;50.932;6.934;2023-12-20T11:49:45;0.00;;;0.00;;
12812;SDS011;6471;50.932;6.934;2023-12-20T12:46:58;0.00;;;0.00;;
12812;SDS011;6471;50.932;6.934;2023-12-20T12:58:24;0.00;;;0.00;;
12812;SDS011;6471;50.932;6.934;2023-12-20T13:04:14;0.00;;;0.00;;
12812;SDS011;6471;50.932;6.934;2023-12-20T13:12:29;0.00;;;0.00;;
12812;SDS011;6471;50.932;6.934;2023-12-20T13:23:07;0.00;;;0.00;;
12812;SDS011;6471;50.932;6.934;2023-12-20T13:31:37;0.00;;;0.00;;
12812;SDS011;6471;50.932;6.934;2023-12-20T13:34:36;0.00;;;0.00;;
12812;SDS011;6471;50.932;6.934;2023-12-20T13:37:28;0.00;;;0.00;;
12812;SDS011;6471;50.932;6.934;2023-12-20T13:40:04;0.00;;;0.00;;
12812;SDS011;6471;50.932;6.934;2023-12-20T13:48:54;0.00;;;0.00;;
12812;SDS011;6471;50.932;6.934;2023-12-20T14:01:56;0.00;;;0.00;;
12812;SDS011;6471;50.932;6.934;2023-12-20T14:13:30;0.00;;;0.00;;
12812;SDS011;6471;50.932;6.934;2023-12-20T14:21:04;0.00;;;0.00;;
12812;SDS011;6471;50.932;6.934;2023-12-20T14:24:07;0.00;;;0.00;;
12812;SDS011;6471;50.932;6.934;2023-12-20T14:29:49;0.00;;;0.00;;
12812;SDS011;6471;50.932;6.934;2023-12-20T14:32:31;0.00;;;0.00;;
12812;SDS011;6471;50.932;6.934;2023-12-20T14:38:24;0.00;;;0.00;;
12812;SDS011;6471;50.932;6.934;2023-12-20T14:44:41;0.00;;;0.00;;
12812;SDS011;6471;50.932;6.934;2023-12-20T14:47:07;0.00;;;0.00;;
12812;SDS011;6471;50.932;6.934;2023-12-20T15:02:43;0.00;;;0.00;;
12812;SDS011;6471;50.932;6.934;2023-12-20T15:11:00;0.00;;;0.00;;
12812;SDS011;6471;50.932;6.934;2023-12-20T15:17:26;0.00;;;0.00;;
12812;SDS011;6471;50.932;6.934;2023-12-20T15:20:24;0.00;;;0.00;;
12812;SDS011;6471;50.932;6.934;2023-12-20T15:23:39;0.00;;;0.00;;
12812;SDS011;6471;50.932;6.934;2023-12-20T15:26:30;0.00;;;0.00;;
12812;SDS011;6471;50.932;6.934;2023-12-20T15:34:51;0.00;;;0.00;;
12812;SDS011;6471;50.932;6.934;2023-12-20T15:37:30;0.00;;;0.00;;
12812;SDS011;6471;50.932;6.934;2023-12-20T15:46:14;0.00;;;0.00;;
12812;SDS011;6471;50.932;6.934;2023-12-20T15:52:04;0.00;;;0.00;;
12812;SDS011;6471;50.932;6.934;2023-12-20T15:54:33;0.00;;;0.00;;
12812;SDS011;6471;50.932;6.934;2023-12-20T15:57:02;0.00;;;0.00;;
12812;SDS011;6471;50.932;6.934;2023-12-20T15:59:28;0.00;;;0.00;;
12812;SDS011;6471;50.932;6.934;2023-12-20T16:02:03;0.00;;;0.00;;
12812;SDS011;6471;50.932;6.934;2023-12-20T16:04:42;0.00;;;0.00;;
12812;SDS011;6471;50.932;6.934;2023-12-20T16:07:27;0.00;;;0.00;;
12812;SDS011;6471;50.932;6.934;2023-12-20T16:09:56;0.00;;;0.00;;
12812;SDS011;6471;50.932;6.934;2023-12-20T16:12:28;0.00;;;0.00;;
12812;SDS011;6471;50.932;6.934;2023-12-20T16:14:57;0.00;;;0.00;;
12812;SDS011;6471;50.932;6.934;2023-12-20T16:17:23;0.00;;;0.00;;
12812;SDS011;6471;50.932;6.934;2023-12-20T16:19:49;0.00;;;0.00;;
12812;SDS011;6471;50.932;6.934;2023-12-20T16:22:16;0.00;;;0.00;;
12812;SDS011;6471;50.932;6.934;2023-12-20T16:24:42;0.00;;;0.00;;
12812;SDS011;6471;50.932;6.934;2023-12-20T16:27:08;0.00;;;0.00;;
12812;SDS011;6471;50.932;6.934;2023-12-20T16:29:34;0.00;;;0.00;;
12812;SDS011;6471;50.932;6.934;2023-12-20T16:32:00;0.00;;;0.00;;
12812;SDS011;6471;50.932;6.934;2023-12-20T16:34:27;0.00;;;0.00;;
12812;SDS011;6471;50.932;6.934;2023-12-20T16:36:53;0.00;;;0.00;;
12812;SDS011;6471;50.932;6.934;2023-12-20T16:39:20;0.00;;;0.00;;
12812;SDS011;6471;50.932;6.934;2023-12-20T16:41:47;0.00;;;0.00;;
12812;SDS011;6471;50.932;6.934;2023-12-20T16:44:13;0.00;;;0.00;;
12812;SDS011;6471;50.932;6.934;2023-12-20T16:46:39;0.00;;;0.00;;
12812;SDS011;6471;50.932;6.934;2023-12-20T16:49:06;0.00;;;0.00;;
12812;SDS011;6471;50.932;6.934;2023-12-20T16:51:32;0.00;;;0.00;;
12812;SDS011;6471;50.932;6.934;2023-12-20T16:54:04;0.00;;;0.00;;
12812;SDS011;6471;50.932;6.934;2023-12-20T16:56:33;0.00;;;0.00;;
12812;SDS011;6471;50.932;6.934;2023-12-20T16:58:59;0.00;;;0.00;;
12812;SDS011;6471;50.932;6.934;2023-12-20T17:01:28;0.00;;;0.00;;
12812;SDS011;6471;50.932;6.934;2023-12-20T17:03:54;0.00;;;0.00;;
12812;SDS011;6471;50.932;6.934;2023-12-20T17:06:20;0.00;;;0.00;;
12812;SDS011;6471;50.932;6.934;2023-12-20T17:08:51;0.00;;;0.00;;
12812;SDS011;6471;50.932;6.934;2023-12-20T17:11:17;0.10;;;0.10;;
12812;SDS011;6471;50.932;6.934;2023-12-20T17:13:52;0.00;;;0.00;;
12812;SDS011;6471;50.932;6.934;2023-12-20T17:16:38;0.00;;;0.00;;
12812;SDS011;6471;50.932;6.934;2023-12-20T17:19:04;0.00;;;0.00;;
12812;SDS011;6471;50.932;6.934;2023-12-20T17:21:31;0.00;;;0.00;;
12812;SDS011;6471;50.932;6.934;2023-12-20T17:24:00;0.00;;;0.00;;
12812;SDS011;6471;50.932;6.934;2023-12-20T17:26:26;0.00;;;0.00;;
12812;SDS011;6471;50.932;6.934;2023-12-20T17:28:52;0.00;;;0.00;;
12812;SDS011;6471;50.932;6.934;2023-12-20T17:31:19;0.00;;;0.00;;
12812;SDS011;6471;50.932;6.934;2023-12-20T17:33:45;0.00;;;0.00;;
12812;SDS011;6471;50.932;6.934;2023-12-20T17:36:11;0.00;;;0.00;;
12812;SDS011;6471;50.932;6.934;2023-12-20T17:38:39;0.00;;;0.00;;
12812;SDS011;6471;50.932;6.934;2023-12-20T17:41:05;0.00;;;0.00;;
12812;SDS011;6471;50.932;6.934;2023-12-20T17:43:32;0.00;;;0.00;;
12812;SDS011;6471;50.932;6.934;2023-12-20T17:45:58;0.00;;;0.00;;
12812;SDS011;6471;50.932;6.934;2023-12-20T17:48:24;0.00;;;0.00;;
12812;SDS011;6471;50.932;6.934;2023-12-20T17:50:50;0.00;;;0.00;;
12812;SDS011;6471;50.932;6.934;2023-12-20T17:53:16;0.00;;;0.00;;
12812;SDS011;6471;50.932;6.934;2023-12-20T17:55:42;0.00;;;0.00;;
12812;SDS011;6471;50.932;6.934;2023-12-20T17:58:09;0.00;;;0.00;;
12812;SDS011;6471;50.932;6.934;2023-12-20T18:00:35;0.00;;;0.00;;
12812;SDS011;6471;50.932;6.934;2023-12-20T18:03:02;0.00;;;0.00;;
12812;SDS011;6471;50.932;6.934;2023-12-20T18:05:29;0.00;;;0.00;;
12812;SDS011;6471;50.932;6.934;2023-12-20T18:07:55;0.00;;;0.00;;
12812;SDS011;6471;50.932;6.934;2023-12-20T18:10:21;0.00;;;0.00;;
12812;SDS011;6471;50.932;6.934;2023-12-20T18:12:47;0.00;;;0.00;;
12812;SDS011;6471;50.932;6.934;2023-12-20T18:15:14;0.00;;;0.00;;
12812;SDS011;6471;50.932;6.934;2023-12-20T18:17:40;0.00;;;0.00;;
12812;SDS011;6471;50.932;6.934;2023-12-20T18:20:07;0.00;;;0.00;;
12812;SDS011;6471;50.932;6.934;2023-12-20T18:22:33;0.00;;;0.00;;
12812;SDS011;6471;50.932;6.934;2023-12-20T18:24:59;0.00;;;0.00;;
12812;SDS011;6471;50.932;6.934;2023-12-20T18:27:25;0.00;;;0.00;;
12812;SDS011;6471;50.932;6.934;2023-12-20T18:29:51;0.00;;;0.00;;
12812;SDS011;6471;50.932;6.934;2023-12-20T18:32:18;0.00;;;0.00;;
12812;SDS011;6471;50.932;6.934;2023-12-20T18:34:44;0.00;;;0.00;;
12812;SDS011;6471;50.932;6.934;2023-12-20T18:37:10;0.00;;;0.00;;
12812;SDS011;6471;50.932;6.934;2023-12-20T18:39:37;0.00;;;0.00;;
12812;SDS011;6471;50.932;6.934;2023-12-20T18:42:06;0.00;;;0.00;;
12812;SDS011;6471;50.932;6.934;2023-12-20T18:44:33;0.00;;;0.00;;
12812;SDS011;6471;50.932;6.934;2023-12-20T18:46:59;0.00;;;0.00;;
12812;SDS011;6471;50.932;6.934;2023-12-20T18:49:26;0.00;;;0.00;;
12812;SDS011;6471;50.932;6.934;2023-12-20T18:51:52;0.00;;;0.00;;
12812;SDS011;6471;50.932;6.934;2023-12-20T18:54:19;0.00;;;0.00;;
12812;SDS011;6471;50.932;6.934;2023-12-20T18:56:46;0.00;;;0.00;;
12812;SDS011;6471;50.932;6.934;2023-12-20T18:59:14;0.00;;;0.00;;
12812;SDS011;6471;50.932;6.934;2023-12-20T19:01:45;0.00;;;0.00;;
12812;SDS011;6471;50.932;6.934;2023-12-20T19:04:11;0.00;;;0.00;;
12812;SDS011;6471;50.932;6.934;2023-12-20T19:06:37;0.00;;;0.00;;
12812;SDS011;6471;50.932;6.934;2023-12-20T19:09:03;0.00;;;0.00;;
12812;SDS011;6471;50.932;6.934;2023-12-20T19:11:29;0.00;;;0.00;;
12812;SDS011;6471;50.932;6.934;2023-12-20T19:14:14;0.00;;;0.00;;
12812;SDS011;6471;50.932;6.934;2023-12-20T19:16:43;0.00;;;0.00;;
12812;SDS011;6471;50.932;6.934;2023-12-20T19:19:09;0.00;;;0.00;;
12812;SDS011;6471;50.932;6.934;2023-12-20T19:21:35;0.00;;;0.00;;
12812;SDS011;6471;50.932;6.934;2023-12-20T19:24:01;0.00;;;0.00;;
12812;SDS011;6471;50.932;6.934;2023-12-20T19:26:27;0.00;;;0.00;;
12812;SDS011;6471;50.932;6.934;2023-12-20T19:28:54;0.00;;;0.00;;
12812;SDS011;6471;50.932;6.934;2023-12-20T19:31:20;0.00;;;0.00;;
12812;SDS011;6471;50.932;6.934;2023-12-20T19:33:46;0.00;;;0.00;;
12812;SDS011;6471;50.932;6.934;2023-12-20T19:36:15;0.00;;;0.00;;
12812;SDS011;6471;50.932;6.934;2023-12-20T19:38:41;0.00;;;0.00;;
12812;SDS011;6471;50.932;6.934;2023-12-20T19:41:13;0.00;;;0.00;;
12812;SDS011;6471;50.932;6.934;2023-12-20T19:43:41;0.00;;;0.00;;
12812;SDS011;6471;50.932;6.934;2023-12-20T19:46:07;0.00;;;0.00;;
12812;SDS011;6471;50.932;6.934;2023-12-20T19:48:34;0.00;;;0.00;;
12812;SDS011;6471;50.932;6.934;2023-12-20T19:51:00;0.00;;;0.00;;
12812;SDS011;6471;50.932;6.934;2023-12-20T19:53:27;0.00;;;0.00;;
12812;SDS011;6471;50.932;6.934;2023-12-20T19:56:02;0.00;;;0.00;;
12812;SDS011;6471;50.932;6.934;2023-12-20T20:01:43;0.00;;;0.00;;
12812;SDS011;6471;50.932;6.934;2023-12-20T20:04:13;0.00;;;0.00;;
12812;SDS011;6471;50.932;6.934;2023-12-20T20:06:41;0.00;;;0.00;;
12812;SDS011;6471;50.932;6.934;2023-12-20T20:09:19;0.00;;;0.00;;
12812;SDS011;6471;50.932;6.934;2023-12-20T20:11:59;0.00;;;0.00;;
12812;SDS011;6471;50.932;6.934;2023-12-20T20:14:31;0.00;;;0.00;;
12812;SDS011;6471;50.932;6.934;2023-12-20T20:17:07;0.00;;;0.00;;
12812;SDS011;6471;50.932;6.934;2023-12-20T20:20:08;0.00;;;0.00;;
12812;SDS011;6471;50.932;6.934;2023-12-20T20:22:58;0.00;;;0.00;;
12812;SDS011;6471;50.932;6.934;2023-12-20T20:25:24;0.00;;;0.00;;
12812;SDS011;6471;50.932;6.934;2023-12-20T20:27:50;0.00;;;0.00;;
12812;SDS011;6471;50.932;6.934;2023-12-20T20:30:16;0.00;;;0.00;;
12812;SDS011;6471;50.932;6.934;2023-12-20T20:32:42;0.00;;;0.00;;
12812;SDS011;6471;50.932;6.934;2023-12-20T20:35:13;0.00;;;0.00;;
12812;SDS011;6471;50.932;6.934;2023-12-20T20:37:39;0.00;;;0.00;;
12812;SDS011;6471;50.932;6.934;2023-12-20T20:40:26;0.00;;;0.00;;
12812;SDS011;6471;50.932;6.934;2023-12-20T20:42:55;0.00;;;0.00;;
12812;SDS011;6471;50.932;6.934;2023-12-20T20:45:21;0.00;;;0.00;;
12812;SDS011;6471;50.932;6.934;2023-12-20T20:47:53;0.00;;;0.00;;
12812;SDS011;6471;50.932;6.934;2023-12-20T20:50:19;0.00;;;0.00;;
12812;SDS011;6471;50.932;6.934;2023-12-20T20:52:45;0.00;;;0.00;;
12812;SDS011;6471;50.932;6.934;2023-12-20T20:55:12;0.00;;;0.00;;
12812;SDS011;6471;50.932;6.934;2023-12-20T20:57:38;0.00;;;0.00;;
12812;SDS011;6471;50.932;6.934;2023-12-20T21:00:08;0.00;;;0.00;;
12812;SDS011;6471;50.932;6.934;2023-12-20T21:02:43;0.00;;;0.00;;
12812;SDS011;6471;50.932;6.934;2023-12-20T21:21:18;0.00;;;0.00;;
12812;SDS011;6471;50.932;6.934;2023-12-20T21:24:05;0.00;;;0.00;;
12812;SDS011;6471;50.932;6.934;2023-12-20T21:27:04;0.00;;;0.00;;